sensor_id;sensor_type;location;lat;lon;timestamp;P1;durP1;ratioP1;P2;durP2;ratioP2
27223;SDS011;14965;50.660;13.226;2023-12-20T00:01:49;4.20;;;2.90;;
27223;SDS011;14965;50.660;13.226;2023-12-20T00:04:15;3.70;;;2.60;;
27223;SDS011;14965;50.660;13.226;2023-12-20T00:06:42;6.38;;;2.85;;
27223;SDS011;14965;50.660;13.226;2023-12-20T00:09:08;3.92;;;2.85;;
27223;SDS011;14965;50.660;13.226;2023-12-20T00:11:34;3.05;;;2.53;;
27223;SDS011;14965;50.660;13.226;2023-12-20T00:14:00;4.78;;;3.30;;
27223;SDS011;14965;50.660;13.226;2023-12-20T00:16:26;4.07;;;3.05;;
27223;SDS011;14965;50.660;13.226;2023-12-20T00:18:52;4.45;;;3.30;;
27223;SDS011;14965;50.660;13.226;2023-12-20T00:21:17;4.28;;;3.10;;
27223;SDS011;14965;50.660;13.226;2023-12-20T00:23:45;3.80;;;2.90;;
27223;SDS011;14965;50.660;13.226;2023-12-20T00:26:10;4.47;;;3.50;;
27223;SDS011;14965;50.660;13.226;2023-12-20T00:28:36;3.90;;;3.17;;
27223;SDS011;14965;50.660;13.226;2023-12-20T00:31:02;4.20;;;3.40;;
27223;SDS011;14965;50.660;13.226;2023-12-20T00:33:28;4.75;;;3.30;;
27223;SDS011;14965;50.660;13.226;2023-12-20T00:35:54;3.08;;;2.55;;
27223;SDS011;14965;50.660;13.226;2023-12-20T00:38:20;5.07;;;3.13;;
27223;SDS011;14965;50.660;13.226;2023-12-20T00:40:47;3.75;;;2.88;;
27223;SDS011;14965;50.660;13.226;2023-12-20T00:43:13;3.42;;;2.55;;
27223;SDS011;14965;50.660;13.226;2023-12-20T00:45:39;2.45;;;2.20;;
27223;SDS011;14965;50.660;13.226;2023-12-20T00:48:05;3.83;;;2.58;;
27223;SDS011;14965;50.660;13.226;2023-12-20T00:50:32;3.17;;;2.30;;
27223;SDS011;14965;50.660;13.226;2023-12-20T00:52:57;3.42;;;2.58;;
27223;SDS011;14965;50.660;13.226;2023-12-20T00:55:23;3.05;;;2.40;;
27223;SDS011;14965;50.660;13.226;2023-12-20T00:57:50;2.53;;;1.83;;
27223;SDS011;14965;50.660;13.226;2023-12-20T01:00:17;2.88;;;2.00;;
27223;SDS011;14965;50.660;13.226;2023-12-20T01:02:43;2.80;;;2.10;;
27223;SDS011;14965;50.660;13.226;2023-12-20T01:05:09;2.40;;;1.95;;
27223;SDS011;14965;50.660;13.226;2023-12-20T01:07:35;2.45;;;1.70;;
27223;SDS011;14965;50.660;13.226;2023-12-20T01:10:00;2.17;;;1.70;;
27223;SDS011;14965;50.660;13.226;2023-12-20T01:12:27;1.95;;;1.60;;
27223;SDS011;14965;50.660;13.226;2023-12-20T01:14:54;2.42;;;1.60;;
27223;SDS011;14965;50.660;13.226;2023-12-20T01:17:20;1.70;;;1.50;;
27223;SDS011;14965;50.660;13.226;2023-12-20T01:19:45;1.50;;;1.40;;
27223;SDS011;14965;50.660;13.226;2023-12-20T01:22:12;1.70;;;1.60;;
27223;SDS011;14965;50.660;13.226;2023-12-20T01:24:38;2.10;;;1.50;;
27223;SDS011;14965;50.660;13.226;2023-12-20T01:27:04;1.60;;;1.45;;
27223;SDS011;14965;50.660;13.226;2023-12-20T01:29:29;2.05;;;1.50;;
27223;SDS011;14965;50.660;13.226;2023-12-20T01:31:57;2.17;;;1.70;;
27223;SDS011;14965;50.660;13.226;2023-12-20T01:34:22;1.40;;;1.30;;
27223;SDS011;14965;50.660;13.226;2023-12-20T01:36:48;1.42;;;1.30;;
27223;SDS011;14965;50.660;13.226;2023-12-20T01:39:14;1.42;;;1.33;;
27223;SDS011;14965;50.660;13.226;2023-12-20T01:41:40;1.40;;;1.30;;
27223;SDS011;14965;50.660;13.226;2023-12-20T01:44:06;1.30;;;1.20;;
27223;SDS011;14965;50.660;13.226;2023-12-20T01:46:32;1.33;;;1.23;;
27223;SDS011;14965;50.660;13.226;2023-12-20T01:48:59;1.10;;;1.00;;
27223;SDS011;14965;50.660;13.226;2023-12-20T01:51:25;1.40;;;1.30;;
27223;SDS011;14965;50.660;13.226;2023-12-20T01:53:52;1.10;;;1.00;;
27223;SDS011;14965;50.660;13.226;2023-12-20T01:58:47;0.98;;;0.95;;
27223;SDS011;14965;50.660;13.226;2023-12-20T02:01:14;1.00;;;0.90;;
27223;SDS011;14965;50.660;13.226;2023-12-20T02:03:40;1.10;;;1.00;;
27223;SDS011;14965;50.660;13.226;2023-12-20T02:06:09;0.60;;;0.60;;
27223;SDS011;14965;50.660;13.226;2023-12-20T02:08:35;1.17;;;1.08;;
27223;SDS011;14965;50.660;13.226;2023-12-20T02:11:01;0.80;;;0.80;;
27223;SDS011;14965;50.660;13.226;2023-12-20T02:13:27;1.50;;;0.98;;
27223;SDS011;14965;50.660;13.226;2023-12-20T02:15:53;1.05;;;0.70;;
27223;SDS011;14965;50.660;13.226;2023-12-20T02:18:20;0.93;;;0.82;;
27223;SDS011;14965;50.660;13.226;2023-12-20T02:20:46;2.00;;;0.85;;
27223;SDS011;14965;50.660;13.226;2023-12-20T02:23:14;0.77;;;0.77;;
27223;SDS011;14965;50.660;13.226;2023-12-20T02:25:40;1.10;;;1.00;;
27223;SDS011;14965;50.660;13.226;2023-12-20T02:28:06;0.98;;;0.80;;
27223;SDS011;14965;50.660;13.226;2023-12-20T02:30:32;1.67;;;0.70;;
27223;SDS011;14965;50.660;13.226;2023-12-20T02:32:58;0.70;;;0.70;;
27223;SDS011;14965;50.660;13.226;2023-12-20T02:35:26;0.73;;;0.73;;
27223;SDS011;14965;50.660;13.226;2023-12-20T02:37:51;1.27;;;0.80;;
27223;SDS011;14965;50.660;13.226;2023-12-20T02:40:19;0.60;;;0.60;;
27223;SDS011;14965;50.660;13.226;2023-12-20T02:42:45;0.80;;;0.70;;
27223;SDS011;14965;50.660;13.226;2023-12-20T02:45:11;0.70;;;0.70;;
27223;SDS011;14965;50.660;13.226;2023-12-20T02:47:37;0.75;;;0.68;;
27223;SDS011;14965;50.660;13.226;2023-12-20T02:50:03;1.02;;;0.77;;
27223;SDS011;14965;50.660;13.226;2023-12-20T02:52:29;0.45;;;0.45;;
27223;SDS011;14965;50.660;13.226;2023-12-20T02:54:55;0.60;;;0.60;;
27223;SDS011;14965;50.660;13.226;2023-12-20T02:57:22;0.80;;;0.57;;
27223;SDS011;14965;50.660;13.226;2023-12-20T02:59:48;1.85;;;0.70;;
27223;SDS011;14965;50.660;13.226;2023-12-20T03:02:14;0.70;;;0.70;;
27223;SDS011;14965;50.660;13.226;2023-12-20T03:04:40;0.60;;;0.60;;
27223;SDS011;14965;50.660;13.226;2023-12-20T03:07:06;0.50;;;0.50;;
27223;SDS011;14965;50.660;13.226;2023-12-20T03:09:32;0.57;;;0.57;;
27223;SDS011;14965;50.660;13.226;2023-12-20T03:11:57;1.20;;;0.60;;
27223;SDS011;14965;50.660;13.226;2023-12-20T03:14:25;0.73;;;0.60;;
27223;SDS011;14965;50.660;13.226;2023-12-20T03:16:51;0.60;;;0.60;;
27223;SDS011;14965;50.660;13.226;2023-12-20T03:19:17;0.60;;;0.60;;
27223;SDS011;14965;50.660;13.226;2023-12-20T03:21:43;0.57;;;0.57;;
27223;SDS011;14965;50.660;13.226;2023-12-20T03:24:09;1.80;;;0.70;;
27223;SDS011;14965;50.660;13.226;2023-12-20T03:26:35;0.70;;;0.60;;
27223;SDS011;14965;50.660;13.226;2023-12-20T03:29:01;0.98;;;0.57;;
27223;SDS011;14965;50.660;13.226;2023-12-20T03:31:28;0.85;;;0.80;;
27223;SDS011;14965;50.660;13.226;2023-12-20T03:33:54;0.80;;;0.70;;
27223;SDS011;14965;50.660;13.226;2023-12-20T03:36:20;1.15;;;0.60;;
27223;SDS011;14965;50.660;13.226;2023-12-20T03:38:46;0.68;;;0.68;;
27223;SDS011;14965;50.660;13.226;2023-12-20T03:41:12;1.20;;;0.90;;
27223;SDS011;14965;50.660;13.226;2023-12-20T03:43:39;0.73;;;0.60;;
27223;SDS011;14965;50.660;13.226;2023-12-20T03:46:04;0.73;;;0.63;;
27223;SDS011;14965;50.660;13.226;2023-12-20T03:48:34;0.88;;;0.85;;
27223;SDS011;14965;50.660;13.226;2023-12-20T03:50:59;1.60;;;0.60;;
27223;SDS011;14965;50.660;13.226;2023-12-20T03:53:25;0.82;;;0.70;;
27223;SDS011;14965;50.660;13.226;2023-12-20T03:55:51;0.60;;;0.60;;
27223;SDS011;14965;50.660;13.226;2023-12-20T03:58:17;0.70;;;0.70;;
27223;SDS011;14965;50.660;13.226;2023-12-20T04:00:43;0.77;;;0.77;;
27223;SDS011;14965;50.660;13.226;2023-12-20T04:03:09;0.82;;;0.70;;
27223;SDS011;14965;50.660;13.226;2023-12-20T04:05:36;0.52;;;0.52;;
27223;SDS011;14965;50.660;13.226;2023-12-20T04:08:02;0.50;;;0.50;;
27223;SDS011;14965;50.660;13.226;2023-12-20T04:10:29;0.93;;;0.68;;
27223;SDS011;14965;50.660;13.226;2023-12-20T04:12:55;1.20;;;0.57;;
27223;SDS011;14965;50.660;13.226;2023-12-20T04:15:21;0.57;;;0.57;;
27223;SDS011;14965;50.660;13.226;2023-12-20T04:17:47;1.15;;;0.60;;
27223;SDS011;14965;50.660;13.226;2023-12-20T04:20:12;1.08;;;0.85;;
27223;SDS011;14965;50.660;13.226;2023-12-20T04:22:40;0.90;;;0.80;;
27223;SDS011;14965;50.660;13.226;2023-12-20T04:25:06;0.73;;;0.60;;
27223;SDS011;14965;50.660;13.226;2023-12-20T04:27:33;1.15;;;0.70;;
27223;SDS011;14965;50.660;13.226;2023-12-20T04:29:59;0.70;;;0.70;;
27223;SDS011;14965;50.660;13.226;2023-12-20T04:32:25;0.90;;;0.90;;
27223;SDS011;14965;50.660;13.226;2023-12-20T04:34:51;1.40;;;1.30;;
27223;SDS011;14965;50.660;13.226;2023-12-20T04:37:17;0.70;;;0.70;;
27223;SDS011;14965;50.660;13.226;2023-12-20T04:39:44;0.60;;;0.60;;
27223;SDS011;14965;50.660;13.226;2023-12-20T04:42:10;1.10;;;0.70;;
27223;SDS011;14965;50.660;13.226;2023-12-20T04:44:36;0.85;;;0.68;;
27223;SDS011;14965;50.660;13.226;2023-12-20T04:47:02;1.25;;;1.15;;
27223;SDS011;14965;50.660;13.226;2023-12-20T04:49:28;1.10;;;1.00;;
27223;SDS011;14965;50.660;13.226;2023-12-20T04:51:54;0.90;;;0.90;;
27223;SDS011;14965;50.660;13.226;2023-12-20T04:54:20;2.75;;;1.67;;
27223;SDS011;14965;50.660;13.226;2023-12-20T04:56:47;1.55;;;1.30;;
27223;SDS011;14965;50.660;13.226;2023-12-20T04:59:13;1.70;;;1.38;;
27223;SDS011;14965;50.660;13.226;2023-12-20T05:01:39;1.90;;;1.30;;
27223;SDS011;14965;50.660;13.226;2023-12-20T05:04:05;1.73;;;1.20;;
27223;SDS011;14965;50.660;13.226;2023-12-20T05:06:31;1.40;;;1.10;;
27223;SDS011;14965;50.660;13.226;2023-12-20T05:08:57;1.00;;;0.90;;
27223;SDS011;14965;50.660;13.226;2023-12-20T05:11:23;0.77;;;0.77;;
27223;SDS011;14965;50.660;13.226;2023-12-20T05:13:50;1.85;;;0.75;;
27223;SDS011;14965;50.660;13.226;2023-12-20T05:16:16;0.80;;;0.70;;
27223;SDS011;14965;50.660;13.226;2023-12-20T05:18:42;1.05;;;0.80;;
27223;SDS011;14965;50.660;13.226;2023-12-20T05:21:08;2.35;;;0.77;;
27223;SDS011;14965;50.660;13.226;2023-12-20T05:23:34;1.30;;;0.90;;
27223;SDS011;14965;50.660;13.226;2023-12-20T05:25:59;0.73;;;0.70;;
27223;SDS011;14965;50.660;13.226;2023-12-20T05:28:25;3.58;;;0.80;;
27223;SDS011;14965;50.660;13.226;2023-12-20T05:30:53;1.00;;;0.77;;
27223;SDS011;14965;50.660;13.226;2023-12-20T05:33:19;1.17;;;0.80;;
27223;SDS011;14965;50.660;13.226;2023-12-20T05:35:45;0.80;;;0.63;;
27223;SDS011;14965;50.660;13.226;2023-12-20T05:38:11;0.70;;;0.70;;
27223;SDS011;14965;50.660;13.226;2023-12-20T05:40:37;0.98;;;0.80;;
27223;SDS011;14965;50.660;13.226;2023-12-20T05:43:04;0.60;;;0.60;;
27223;SDS011;14965;50.660;13.226;2023-12-20T05:45:29;1.25;;;0.80;;
27223;SDS011;14965;50.660;13.226;2023-12-20T05:47:57;0.90;;;0.77;;
27223;SDS011;14965;50.660;13.226;2023-12-20T05:50:23;2.92;;;0.82;;
27223;SDS011;14965;50.660;13.226;2023-12-20T05:52:49;1.27;;;0.77;;
27223;SDS011;14965;50.660;13.226;2023-12-20T05:55:14;0.90;;;0.80;;
27223;SDS011;14965;50.660;13.226;2023-12-20T05:57:40;0.70;;;0.70;;
27223;SDS011;14965;50.660;13.226;2023-12-20T06:00:07;0.55;;;0.55;;
27223;SDS011;14965;50.660;13.226;2023-12-20T06:02:34;0.55;;;0.50;;
27223;SDS011;14965;50.660;13.226;2023-12-20T06:05:02;1.13;;;0.50;;
27223;SDS011;14965;50.660;13.226;2023-12-20T06:07:29;4.88;;;3.42;;
27223;SDS011;14965;50.660;13.226;2023-12-20T06:09:55;1.02;;;1.00;;
27223;SDS011;14965;50.660;13.226;2023-12-20T06:12:21;0.70;;;0.70;;
27223;SDS011;14965;50.660;13.226;2023-12-20T06:14:47;6.38;;;3.42;;
27223;SDS011;14965;50.660;13.226;2023-12-20T06:17:13;9.27;;;4.93;;
27223;SDS011;14965;50.660;13.226;2023-12-20T06:19:39;2.70;;;2.30;;
27223;SDS011;14965;50.660;13.226;2023-12-20T06:22:06;2.08;;;1.60;;
27223;SDS011;14965;50.660;13.226;2023-12-20T06:24:32;1.50;;;1.33;;
27223;SDS011;14965;50.660;13.226;2023-12-20T06:26:58;4.90;;;1.90;;
27223;SDS011;14965;50.660;13.226;2023-12-20T06:29:24;2.88;;;2.30;;
27223;SDS011;14965;50.660;13.226;2023-12-20T06:31:50;3.25;;;2.17;;
27223;SDS011;14965;50.660;13.226;2023-12-20T06:34:16;2.22;;;1.75;;
27223;SDS011;14965;50.660;13.226;2023-12-20T06:36:41;3.13;;;2.30;;
27223;SDS011;14965;50.660;13.226;2023-12-20T06:39:09;4.00;;;3.03;;
27223;SDS011;14965;50.660;13.226;2023-12-20T06:41:35;2.80;;;2.05;;
27223;SDS011;14965;50.660;13.226;2023-12-20T06:44:00;3.17;;;2.20;;
27223;SDS011;14965;50.660;13.226;2023-12-20T06:46:26;3.92;;;2.67;;
27223;SDS011;14965;50.660;13.226;2023-12-20T06:48:52;3.78;;;2.80;;
27223;SDS011;14965;50.660;13.226;2023-12-20T06:51:18;2.80;;;2.58;;
27223;SDS011;14965;50.660;13.226;2023-12-20T06:53:44;3.85;;;3.45;;
27223;SDS011;14965;50.660;13.226;2023-12-20T06:56:11;4.32;;;3.70;;
27223;SDS011;14965;50.660;13.226;2023-12-20T06:58:37;4.25;;;3.75;;
27223;SDS011;14965;50.660;13.226;2023-12-20T07:01:03;4.15;;;3.67;;
27223;SDS011;14965;50.660;13.226;2023-12-20T07:03:29;5.05;;;3.95;;
27223;SDS011;14965;50.660;13.226;2023-12-20T07:05:55;4.88;;;4.28;;
27223;SDS011;14965;50.660;13.226;2023-12-20T07:08:21;6.55;;;3.90;;
27223;SDS011;14965;50.660;13.226;2023-12-20T07:10:47;5.50;;;4.22;;
27223;SDS011;14965;50.660;13.226;2023-12-20T07:13:14;3.97;;;3.50;;
27223;SDS011;14965;50.660;13.226;2023-12-20T07:15:40;6.63;;;3.80;;
27223;SDS011;14965;50.660;13.226;2023-12-20T07:18:06;5.10;;;3.63;;
27223;SDS011;14965;50.660;13.226;2023-12-20T07:20:32;6.25;;;3.50;;
27223;SDS011;14965;50.660;13.226;2023-12-20T07:22:58;4.47;;;3.30;;
27223;SDS011;14965;50.660;13.226;2023-12-20T07:25:24;4.75;;;3.83;;
27223;SDS011;14965;50.660;13.226;2023-12-20T07:27:50;7.93;;;3.85;;
27223;SDS011;14965;50.660;13.226;2023-12-20T07:30:18;4.35;;;3.40;;
27223;SDS011;14965;50.660;13.226;2023-12-20T07:32:44;10.00;;;3.95;;
27223;SDS011;14965;50.660;13.226;2023-12-20T07:35:10;7.53;;;4.00;;
27223;SDS011;14965;50.660;13.226;2023-12-20T07:37:35;11.07;;;4.45;;
27223;SDS011;14965;50.660;13.226;2023-12-20T07:40:01;5.57;;;3.58;;
27223;SDS011;14965;50.660;13.226;2023-12-20T07:42:28;9.65;;;4.45;;
27223;SDS011;14965;50.660;13.226;2023-12-20T07:44:54;9.20;;;3.72;;
27223;SDS011;14965;50.660;13.226;2023-12-20T07:47:21;7.32;;;4.10;;
27223;SDS011;14965;50.660;13.226;2023-12-20T07:49:47;10.65;;;4.57;;
27223;SDS011;14965;50.660;13.226;2023-12-20T07:52:13;7.35;;;3.95;;
27223;SDS011;14965;50.660;13.226;2023-12-20T07:54:39;7.70;;;3.75;;
27223;SDS011;14965;50.660;13.226;2023-12-20T07:57:06;8.82;;;3.63;;
27223;SDS011;14965;50.660;13.226;2023-12-20T07:59:32;7.47;;;3.67;;
27223;SDS011;14965;50.660;13.226;2023-12-20T08:01:57;11.07;;;3.67;;
27223;SDS011;14965;50.660;13.226;2023-12-20T08:04:25;6.00;;;3.85;;
27223;SDS011;14965;50.660;13.226;2023-12-20T08:06:51;9.52;;;3.80;;
27223;SDS011;14965;50.660;13.226;2023-12-20T08:09:17;10.05;;;3.85;;
27223;SDS011;14965;50.660;13.226;2023-12-20T08:11:44;9.30;;;3.45;;
27223;SDS011;14965;50.660;13.226;2023-12-20T08:14:10;6.80;;;3.22;;
27223;SDS011;14965;50.660;13.226;2023-12-20T08:16:36;6.53;;;3.80;;
27223;SDS011;14965;50.660;13.226;2023-12-20T08:19:02;9.35;;;4.18;;
27223;SDS011;14965;50.660;13.226;2023-12-20T08:21:30;8.23;;;3.80;;
27223;SDS011;14965;50.660;13.226;2023-12-20T08:23:56;11.48;;;4.07;;
27223;SDS011;14965;50.660;13.226;2023-12-20T08:26:22;8.55;;;4.28;;
27223;SDS011;14965;50.660;13.226;2023-12-20T08:28:48;10.65;;;4.50;;
27223;SDS011;14965;50.660;13.226;2023-12-20T08:31:15;9.32;;;4.05;;
27223;SDS011;14965;50.660;13.226;2023-12-20T08:33:42;9.23;;;4.28;;
27223;SDS011;14965;50.660;13.226;2023-12-20T08:36:09;11.77;;;4.50;;
27223;SDS011;14965;50.660;13.226;2023-12-20T08:38:37;8.52;;;4.18;;
27223;SDS011;14965;50.660;13.226;2023-12-20T08:41:03;9.90;;;4.32;;
27223;SDS011;14965;50.660;13.226;2023-12-20T09:05:07;4.05;;;2.78;;
27223;SDS011;14965;50.660;13.226;2023-12-20T09:07:33;11.13;;;5.95;;
27223;SDS011;14965;50.660;13.226;2023-12-20T09:10:00;17.38;;;11.10;;
27223;SDS011;14965;50.660;13.226;2023-12-20T09:12:26;10.50;;;5.45;;
27223;SDS011;14965;50.660;13.226;2023-12-20T09:14:52;4.65;;;3.60;;
27223;SDS011;14965;50.660;13.226;2023-12-20T09:17:18;3.75;;;2.70;;
27223;SDS011;14965;50.660;13.226;2023-12-20T09:19:44;4.13;;;2.50;;
27223;SDS011;14965;50.660;13.226;2023-12-20T09:22:11;4.63;;;2.97;;
27223;SDS011;14965;50.660;13.226;2023-12-20T09:24:37;5.00;;;2.65;;
27223;SDS011;14965;50.660;13.226;2023-12-20T09:27:04;3.25;;;2.42;;
27223;SDS011;14965;50.660;13.226;2023-12-20T09:29:30;6.20;;;2.83;;
27223;SDS011;14965;50.660;13.226;2023-12-20T09:31:56;3.67;;;3.15;;
27223;SDS011;14965;50.660;13.226;2023-12-20T09:34:23;4.63;;;3.25;;
27223;SDS011;14965;50.660;13.226;2023-12-20T09:36:49;7.00;;;3.75;;
27223;SDS011;14965;50.660;13.226;2023-12-20T09:39:17;6.22;;;3.60;;
27223;SDS011;14965;50.660;13.226;2023-12-20T09:41:45;5.18;;;3.90;;
27223;SDS011;14965;50.660;13.226;2023-12-20T09:44:22;8.30;;;4.80;;
27223;SDS011;14965;50.660;13.226;2023-12-20T09:46:49;7.60;;;4.60;;
27223;SDS011;14965;50.660;13.226;2023-12-20T09:49:15;7.93;;;4.65;;
27223;SDS011;14965;50.660;13.226;2023-12-20T09:51:43;12.70;;;4.60;;
27223;SDS011;14965;50.660;13.226;2023-12-20T09:54:12;10.40;;;4.90;;
27223;SDS011;14965;50.660;13.226;2023-12-20T09:56:40;9.90;;;4.70;;
27223;SDS011;14965;50.660;13.226;2023-12-20T09:59:06;12.77;;;4.68;;
27223;SDS011;14965;50.660;13.226;2023-12-20T10:01:32;14.13;;;5.10;;
27223;SDS011;14965;50.660;13.226;2023-12-20T10:04:01;10.80;;;5.15;;
27223;SDS011;14965;50.660;13.226;2023-12-20T10:06:33;9.75;;;4.45;;
27223;SDS011;14965;50.660;13.226;2023-12-20T10:08:59;10.30;;;4.80;;
27223;SDS011;14965;50.660;13.226;2023-12-20T10:11:24;8.93;;;4.97;;
27223;SDS011;14965;50.660;13.226;2023-12-20T10:13:52;13.57;;;6.05;;
27223;SDS011;14965;50.660;13.226;2023-12-20T10:16:24;13.00;;;7.03;;
27223;SDS011;14965;50.660;13.226;2023-12-20T10:18:51;13.98;;;5.57;;
27223;SDS011;14965;50.660;13.226;2023-12-20T10:21:18;12.65;;;5.82;;
27223;SDS011;14965;50.660;13.226;2023-12-20T10:23:46;10.60;;;4.78;;
27223;SDS011;14965;50.660;13.226;2023-12-20T10:26:20;12.05;;;6.57;;
27223;SDS011;14965;50.660;13.226;2023-12-20T10:28:54;13.88;;;6.90;;
27223;SDS011;14965;50.660;13.226;2023-12-20T10:31:28;14.38;;;7.28;;
27223;SDS011;14965;50.660;13.226;2023-12-20T10:33:56;11.02;;;6.22;;
27223;SDS011;14965;50.660;13.226;2023-12-20T10:39:06;7.07;;;4.30;;
27223;SDS011;14965;50.660;13.226;2023-12-20T11:49:07;7.28;;;3.70;;
27223;SDS011;14965;50.660;13.226;2023-12-20T11:51:33;9.48;;;3.38;;
27223;SDS011;14965;50.660;13.226;2023-12-20T11:54:00;7.45;;;3.72;;
27223;SDS011;14965;50.660;13.226;2023-12-20T11:56:26;9.93;;;4.30;;
27223;SDS011;14965;50.660;13.226;2023-12-20T11:58:53;10.52;;;3.22;;
27223;SDS011;14965;50.660;13.226;2023-12-20T12:01:21;7.60;;;2.83;;
27223;SDS011;14965;50.660;13.226;2023-12-20T12:03:47;9.25;;;3.40;;
27223;SDS011;14965;50.660;13.226;2023-12-20T12:06:15;10.80;;;3.38;;
27223;SDS011;14965;50.660;13.226;2023-12-20T12:08:41;10.43;;;3.28;;
27223;SDS011;14965;50.660;13.226;2023-12-20T12:11:07;10.88;;;3.25;;
27223;SDS011;14965;50.660;13.226;2023-12-20T12:13:33;12.25;;;3.60;;
27223;SDS011;14965;50.660;13.226;2023-12-20T12:15:59;7.32;;;3.15;;
27223;SDS011;14965;50.660;13.226;2023-12-20T12:18:25;11.98;;;3.65;;
27223;SDS011;14965;50.660;13.226;2023-12-20T12:20:51;9.85;;;4.10;;
27223;SDS011;14965;50.660;13.226;2023-12-20T12:23:27;11.88;;;3.80;;
27223;SDS011;14965;50.660;13.226;2023-12-20T12:25:53;8.38;;;3.60;;
27223;SDS011;14965;50.660;13.226;2023-12-20T12:28:20;7.53;;;3.22;;
27223;SDS011;14965;50.660;13.226;2023-12-20T12:30:55;7.78;;;3.63;;
27223;SDS011;14965;50.660;13.226;2023-12-20T12:33:22;11.40;;;3.35;;
27223;SDS011;14965;50.660;13.226;2023-12-20T12:35:49;14.13;;;3.40;;
27223;SDS011;14965;50.660;13.226;2023-12-20T12:38:15;5.75;;;3.00;;
27223;SDS011;14965;50.660;13.226;2023-12-20T12:40:42;5.63;;;3.13;;
27223;SDS011;14965;50.660;13.226;2023-12-20T12:43:09;10.25;;;3.40;;
27223;SDS011;14965;50.660;13.226;2023-12-20T12:45:35;8.75;;;3.47;;
27223;SDS011;14965;50.660;13.226;2023-12-20T12:48:00;10.32;;;3.22;;
27223;SDS011;14965;50.660;13.226;2023-12-20T12:50:27;7.03;;;3.20;;
27223;SDS011;14965;50.660;13.226;2023-12-20T12:52:53;6.97;;;3.10;;
27223;SDS011;14965;50.660;13.226;2023-12-20T12:55:19;10.25;;;2.75;;
27223;SDS011;14965;50.660;13.226;2023-12-20T12:57:46;8.25;;;3.45;;
27223;SDS011;14965;50.660;13.226;2023-12-20T13:00:12;8.07;;;3.50;;
27223;SDS011;14965;50.660;13.226;2023-12-20T13:02:39;7.97;;;3.60;;
27223;SDS011;14965;50.660;13.226;2023-12-20T13:05:05;7.55;;;3.10;;
27223;SDS011;14965;50.660;13.226;2023-12-20T13:07:32;6.35;;;3.20;;
27223;SDS011;14965;50.660;13.226;2023-12-20T13:09:58;7.60;;;3.65;;
27223;SDS011;14965;50.660;13.226;2023-12-20T13:12:24;7.60;;;3.00;;
27223;SDS011;14965;50.660;13.226;2023-12-20T13:14:51;6.55;;;3.00;;
27223;SDS011;14965;50.660;13.226;2023-12-20T13:17:17;8.50;;;4.15;;
27223;SDS011;14965;50.660;13.226;2023-12-20T13:19:43;6.30;;;2.90;;
27223;SDS011;14965;50.660;13.226;2023-12-20T13:22:09;7.38;;;3.17;;
27223;SDS011;14965;50.660;13.226;2023-12-20T13:24:35;5.30;;;3.05;;
27223;SDS011;14965;50.660;13.226;2023-12-20T13:27:01;8.80;;;3.30;;
27223;SDS011;14965;50.660;13.226;2023-12-20T13:29:27;10.77;;;3.67;;
27223;SDS011;14965;50.660;13.226;2023-12-20T13:31:54;6.53;;;3.20;;
27223;SDS011;14965;50.660;13.226;2023-12-20T13:34:20;9.95;;;3.20;;
27223;SDS011;14965;50.660;13.226;2023-12-20T13:36:46;8.25;;;3.38;;
27223;SDS011;14965;50.660;13.226;2023-12-20T13:39:12;8.00;;;4.18;;
27223;SDS011;14965;50.660;13.226;2023-12-20T13:41:38;10.48;;;4.72;;
27223;SDS011;14965;50.660;13.226;2023-12-20T13:44:05;11.27;;;5.18;;
27223;SDS011;14965;50.660;13.226;2023-12-20T13:46:31;5.53;;;3.10;;
27223;SDS011;14965;50.660;13.226;2023-12-20T13:48:58;9.07;;;4.38;;
27223;SDS011;14965;50.660;13.226;2023-12-20T13:51:24;7.45;;;3.30;;
27223;SDS011;14965;50.660;13.226;2023-12-20T13:53:50;7.07;;;3.40;;
27223;SDS011;14965;50.660;13.226;2023-12-20T13:56:16;9.30;;;4.15;;
27223;SDS011;14965;50.660;13.226;2023-12-20T13:58:42;11.13;;;3.63;;
27223;SDS011;14965;50.660;13.226;2023-12-20T14:01:08;9.60;;;3.20;;
27223;SDS011;14965;50.660;13.226;2023-12-20T14:03:34;8.48;;;3.92;;
27223;SDS011;14965;50.660;13.226;2023-12-20T14:06:02;6.28;;;3.40;;
27223;SDS011;14965;50.660;13.226;2023-12-20T14:08:28;5.20;;;3.25;;
27223;SDS011;14965;50.660;13.226;2023-12-20T14:10:54;8.20;;;2.70;;
27223;SDS011;14965;50.660;13.226;2023-12-20T14:13:20;4.97;;;3.08;;
27223;SDS011;14965;50.660;13.226;2023-12-20T14:15:46;6.78;;;2.88;;
27223;SDS011;14965;50.660;13.226;2023-12-20T14:18:12;8.38;;;3.40;;
27223;SDS011;14965;50.660;13.226;2023-12-20T14:20:38;9.38;;;5.18;;
27223;SDS011;14965;50.660;13.226;2023-12-20T14:23:05;7.97;;;4.32;;
27223;SDS011;14965;50.660;13.226;2023-12-20T14:25:31;13.30;;;6.50;;
27223;SDS011;14965;50.660;13.226;2023-12-20T14:27:58;6.80;;;2.72;;
27223;SDS011;14965;50.660;13.226;2023-12-20T14:30:26;9.40;;;3.90;;
27223;SDS011;14965;50.660;13.226;2023-12-20T14:32:52;5.65;;;3.53;;
27223;SDS011;14965;50.660;13.226;2023-12-20T14:35:19;8.52;;;5.43;;
27223;SDS011;14965;50.660;13.226;2023-12-20T14:37:46;10.13;;;4.70;;
27223;SDS011;14965;50.660;13.226;2023-12-20T14:40:13;16.80;;;8.02;;
27223;SDS011;14965;50.660;13.226;2023-12-20T14:42:39;7.13;;;3.95;;
27223;SDS011;14965;50.660;13.226;2023-12-20T14:45:06;9.43;;;5.30;;
27223;SDS011;14965;50.660;13.226;2023-12-20T14:47:33;4.28;;;2.50;;
27223;SDS011;14965;50.660;13.226;2023-12-20T14:50:00;6.13;;;2.25;;
27223;SDS011;14965;50.660;13.226;2023-12-20T14:52:27;7.32;;;3.20;;
27223;SDS011;14965;50.660;13.226;2023-12-20T14:54:54;4.95;;;2.60;;
27223;SDS011;14965;50.660;13.226;2023-12-20T14:57:30;6.95;;;3.58;;
27223;SDS011;14965;50.660;13.226;2023-12-20T14:59:57;6.75;;;2.53;;
27223;SDS011;14965;50.660;13.226;2023-12-20T15:02:23;7.85;;;4.13;;
27223;SDS011;14965;50.660;13.226;2023-12-20T15:04:49;7.00;;;3.22;;
27223;SDS011;14965;50.660;13.226;2023-12-20T15:07:16;10.48;;;4.22;;
27223;SDS011;14965;50.660;13.226;2023-12-20T15:12:46;13.80;;;5.15;;
27223;SDS011;14965;50.660;13.226;2023-12-20T15:15:13;18.52;;;5.63;;
27223;SDS011;14965;50.660;13.226;2023-12-20T15:17:39;35.45;;;12.80;;
27223;SDS011;14965;50.660;13.226;2023-12-20T15:20:06;16.90;;;5.65;;
27223;SDS011;14965;50.660;13.226;2023-12-20T15:22:32;26.98;;;8.70;;
27223;SDS011;14965;50.660;13.226;2023-12-20T15:24:58;14.15;;;4.03;;
27223;SDS011;14965;50.660;13.226;2023-12-20T15:27:25;18.08;;;5.72;;
27223;SDS011;14965;50.660;13.226;2023-12-20T15:29:52;10.48;;;5.00;;
27223;SDS011;14965;50.660;13.226;2023-12-20T15:32:18;16.35;;;4.57;;
27223;SDS011;14965;50.660;13.226;2023-12-20T15:34:44;11.07;;;4.32;;
27223;SDS011;14965;50.660;13.226;2023-12-20T15:37:10;14.15;;;5.38;;
27223;SDS011;14965;50.660;13.226;2023-12-20T15:39:36;13.73;;;4.53;;
27223;SDS011;14965;50.660;13.226;2023-12-20T15:42:02;9.40;;;3.13;;
27223;SDS011;14965;50.660;13.226;2023-12-20T15:44:29;11.23;;;3.90;;
27223;SDS011;14965;50.660;13.226;2023-12-20T15:46:58;15.57;;;4.43;;
27223;SDS011;14965;50.660;13.226;2023-12-20T15:49:24;13.30;;;4.18;;
27223;SDS011;14965;50.660;13.226;2023-12-20T15:51:50;14.40;;;3.92;;
27223;SDS011;14965;50.660;13.226;2023-12-20T15:54:15;8.38;;;3.22;;
27223;SDS011;14965;50.660;13.226;2023-12-20T15:56:41;11.45;;;4.13;;
27223;SDS011;14965;50.660;13.226;2023-12-20T15:59:07;8.45;;;2.92;;
27223;SDS011;14965;50.660;13.226;2023-12-20T16:01:33;10.05;;;3.38;;
27223;SDS011;14965;50.660;13.226;2023-12-20T16:04:00;9.10;;;3.47;;